Olga, WA (98279)

9:39 PM PDT on September 21, 2014 (GMT -0700)
West Slope Mount Constitution - Orcas Island | Change Station
CLOSE
Current Station
Personal Weather Station
Location: Eastsound, WA
Elevation: 1033 ft
Nearby Weather Stations

Elev 1033 ft 48.67 °N, 122.87 °W | Updated 12 minutes ago

Clear
Clear
63.2 °F
Feels Like 63.2 °F
N
9.0
Wind Variable Wind from ENE
Gusts 16.0 mph

Today
High -- | Low -- °F
--% Chance of Precip.
Yesterday
High -- | Low -- °F
Precip. -- in
6:56 AM 7:11 PM
Waning Crescent, 4% visible
Pressure 29.82 in
Visibility 10.0 miles
Clouds Clear
Dew Point 56 °F
Humidity 78%
Rainfall 0.00 in
Snow Depth 0 in , 0 in , 0 in
UV 0 out of 12
Pollen 1.60 out of 12
Air Quality Not available.
Flu Activity Not available.
METAR KORS 220415Z AUTO 19012G19KT 10SM CLR 17/13 A2982 RMK AO2

More Conditions Fewer Conditions

Pressure 29.82 in
Visibility 10.0 miles
Clouds Clear
Dew Point 56 °F
Humidity 78%
Rainfall 0.00 in
Snow Depth 0 in , 0 in , 0 in
UV 0 out of 12
Pollen 1.60 out of 12
Air Quality Not available.
Flu Activity Not available.
METAR KORS 220415Z AUTO 19012G19KT 10SM CLR 17/13 A2982 RMK AO2

More Conditions Fewer Conditions

10-Day Weather Forecast

Almanac

Astronomy

Sep. 21, 2014 Rise Set
Actual Time 6:56 AM PDT 7:11 PM PDT
Civil Twilight 6:25 AM PDT 7:42 PM PDT
Nautical Twilight 5:48 AM PDT 8:19 PM PDT
Astronomical Twilight 5:09 AM PDT 8:57 PM PDT
Moon 4:26 AM PDT (9/21) 5:56 PM PDT (9/21)
Length of Visible Light 13h 17m
Length of Day
12h 14m
Tomorrow will be 3m 32s shorter.
Waning Crescent, 4% of the Moon is Illuminated
Sep 22
Waning Crescent
Sep 24
New
Oct 1
First Quarter
Oct 8
Full
Oct 15
Last Quarter

Yesterday's Extremes

State Highs State Lows

Community

WunderPhotos

Upload Photos

1,755,384 photos uploaded!

Nearby

Snow Depth

Station Depth Elevation
June Lake 0 in 3340 ft
Harts Pass 0 in 6500 ft
Elbow Lake 0 in 3200 ft
Alpine Meadows 0 in 3500 ft
Bunchgrass Meadow 0 in 5000 ft

Earthquake Activity

City Distance Mag. Time & Date
No recent earthquake activity has been reported nearby.
Minimum magnitude displayed is 2.5.

Coastal Water Temperatures

Place Temperature
Port Townsend, WA 52.0 °F
Friday Harbor, WA 52.0 °F
Port Angeles, WA 52.0 °F

Nearby Weather Stations